Terminal Aerodrome Forecast
Issued by NWS Riverton, WY

Current Version | Previous Version | Text Only | Print | Product List | Glossary On
Versions: 1 2 3 4 5 6 7 8 9 10 11 12 13 14
795
FTUS45 KRIW 211728
TAFRIW
TAF
KRIW 211728Z 2118/2218 24018G28KT P6SM SCT080 SCT200
     FM212100 28015KT P6SM BKN090
     FM220300 28014G24KT P6SM VCSH BKN070
      TEMPO 2203/2205 -SHRA BKN050
     FM220800 32011KT P6SM BKN090=

USA.gov is the U.S. government's official web portal to all federal, state and local government web resources and services.